sensor_id;sensor_type;location;lat;lon;timestamp;P1;durP1;ratioP1;P2;durP2;ratioP2
43664;SDS011;29263;48.172;11.484;2023-05-07T00:02:20;8.35;;;5.20;;
43664;SDS011;29263;48.172;11.484;2023-05-07T00:04:46;8.60;;;5.90;;
43664;SDS011;29263;48.172;11.484;2023-05-07T00:07:12;7.78;;;5.38;;
43664;SDS011;29263;48.172;11.484;2023-05-07T00:09:37;8.10;;;5.35;;
43664;SDS011;29263;48.172;11.484;2023-05-07T00:12:03;8.40;;;5.60;;
43664;SDS011;29263;48.172;11.484;2023-05-07T00:14:29;9.63;;;5.45;;
43664;SDS011;29263;48.172;11.484;2023-05-07T00:16:55;7.20;;;5.88;;
43664;SDS011;29263;48.172;11.484;2023-05-07T00:19:20;7.72;;;5.30;;
43664;SDS011;29263;48.172;11.484;2023-05-07T00:21:46;6.18;;;5.30;;
43664;SDS011;29263;48.172;11.484;2023-05-07T00:24:11;6.35;;;5.28;;
43664;SDS011;29263;48.172;11.484;2023-05-07T00:26:37;8.63;;;5.88;;
43664;SDS011;29263;48.172;11.484;2023-05-07T00:29:03;10.02;;;6.63;;
43664;SDS011;29263;48.172;11.484;2023-05-07T00:31:28;8.60;;;6.57;;
43664;SDS011;29263;48.172;11.484;2023-05-07T00:33:54;8.93;;;6.13;;
43664;SDS011;29263;48.172;11.484;2023-05-07T00:36:19;7.95;;;6.28;;
43664;SDS011;29263;48.172;11.484;2023-05-07T00:38:45;8.48;;;5.32;;
43664;SDS011;29263;48.172;11.484;2023-05-07T00:41:10;7.20;;;5.70;;
43664;SDS011;29263;48.172;11.484;2023-05-07T00:43:40;8.15;;;6.18;;
43664;SDS011;29263;48.172;11.484;2023-05-07T00:46:06;8.32;;;6.00;;
43664;SDS011;29263;48.172;11.484;2023-05-07T00:48:31;8.82;;;5.72;;
43664;SDS011;29263;48.172;11.484;2023-05-07T00:50:57;7.50;;;5.85;;
43664;SDS011;29263;48.172;11.484;2023-05-07T00:53:23;7.13;;;5.60;;
43664;SDS011;29263;48.172;11.484;2023-05-07T00:55:48;7.03;;;5.28;;
43664;SDS011;29263;48.172;11.484;2023-05-07T00:58:14;7.82;;;6.10;;
43664;SDS011;29263;48.172;11.484;2023-05-07T01:00:40;10.32;;;6.43;;
43664;SDS011;29263;48.172;11.484;2023-05-07T01:03:06;7.93;;;6.10;;
43664;SDS011;29263;48.172;11.484;2023-05-07T01:05:32;8.73;;;5.80;;
43664;SDS011;29263;48.172;11.484;2023-05-07T01:07:57;8.27;;;6.07;;
43664;SDS011;29263;48.172;11.484;2023-05-07T01:10:27;8.25;;;5.82;;
43664;SDS011;29263;48.172;11.484;2023-05-07T01:12:55;9.48;;;6.30;;
43664;SDS011;29263;48.172;11.484;2023-05-07T01:15:21;10.27;;;6.53;;
43664;SDS011;29263;48.172;11.484;2023-05-07T01:17:47;8.13;;;6.63;;
43664;SDS011;29263;48.172;11.484;2023-05-07T01:20:13;9.55;;;7.00;;
43664;SDS011;29263;48.172;11.484;2023-05-07T01:22:38;11.52;;;6.63;;
43664;SDS011;29263;48.172;11.484;2023-05-07T01:25:05;9.80;;;6.22;;
43664;SDS011;29263;48.172;11.484;2023-05-07T01:27:32;8.38;;;6.00;;
43664;SDS011;29263;48.172;11.484;2023-05-07T01:30:01;8.50;;;6.35;;
43664;SDS011;29263;48.172;11.484;2023-05-07T01:32:38;7.53;;;6.22;;
43664;SDS011;29263;48.172;11.484;2023-05-07T01:35:13;9.38;;;6.45;;
43664;SDS011;29263;48.172;11.484;2023-05-07T01:37:44;9.75;;;6.57;;
43664;SDS011;29263;48.172;11.484;2023-05-07T01:40:10;15.18;;;7.63;;
43664;SDS011;29263;48.172;11.484;2023-05-07T01:42:36;8.82;;;7.55;;
43664;SDS011;29263;48.172;11.484;2023-05-07T01:45:02;9.18;;;6.55;;
43664;SDS011;29263;48.172;11.484;2023-05-07T01:47:28;7.18;;;5.50;;
43664;SDS011;29263;48.172;11.484;2023-05-07T01:49:54;8.43;;;5.90;;
43664;SDS011;29263;48.172;11.484;2023-05-07T01:52:20;7.97;;;6.35;;
43664;SDS011;29263;48.172;11.484;2023-05-07T01:54:46;9.32;;;6.57;;
43664;SDS011;29263;48.172;11.484;2023-05-07T01:57:12;10.45;;;6.00;;
43664;SDS011;29263;48.172;11.484;2023-05-07T01:59:37;10.02;;;5.90;;
43664;SDS011;29263;48.172;11.484;2023-05-07T02:02:03;7.03;;;5.75;;
43664;SDS011;29263;48.172;11.484;2023-05-07T02:04:29;7.25;;;6.20;;
43664;SDS011;29263;48.172;11.484;2023-05-07T02:06:54;8.18;;;5.70;;
43664;SDS011;29263;48.172;11.484;2023-05-07T02:09:20;9.52;;;6.03;;
43664;SDS011;29263;48.172;11.484;2023-05-07T02:11:47;7.70;;;5.82;;
43664;SDS011;29263;48.172;11.484;2023-05-07T02:14:13;9.27;;;6.18;;
43664;SDS011;29263;48.172;11.484;2023-05-07T02:16:38;8.20;;;5.38;;
43664;SDS011;29263;48.172;11.484;2023-05-07T02:19:04;8.40;;;5.53;;
43664;SDS011;29263;48.172;11.484;2023-05-07T02:21:30;8.63;;;5.63;;
43664;SDS011;29263;48.172;11.484;2023-05-07T02:23:55;7.63;;;5.68;;
43664;SDS011;29263;48.172;11.484;2023-05-07T02:26:21;11.45;;;5.60;;
43664;SDS011;29263;48.172;11.484;2023-05-07T02:28:47;11.70;;;6.43;;
43664;SDS011;29263;48.172;11.484;2023-05-07T02:31:12;7.97;;;5.15;;
43664;SDS011;29263;48.172;11.484;2023-05-07T02:33:38;8.82;;;5.88;;
43664;SDS011;29263;48.172;11.484;2023-05-07T02:36:10;6.93;;;5.22;;
43664;SDS011;29263;48.172;11.484;2023-05-07T02:38:36;7.85;;;5.45;;
43664;SDS011;29263;48.172;11.484;2023-05-07T02:41:02;8.88;;;5.55;;
43664;SDS011;29263;48.172;11.484;2023-05-07T02:43:28;8.35;;;5.90;;
43664;SDS011;29263;48.172;11.484;2023-05-07T02:46:00;7.03;;;4.68;;
43664;SDS011;29263;48.172;11.484;2023-05-07T02:48:33;7.53;;;5.88;;
43664;SDS011;29263;48.172;11.484;2023-05-07T02:50:58;8.18;;;5.22;;
43664;SDS011;29263;48.172;11.484;2023-05-07T02:53:25;7.05;;;5.60;;
43664;SDS011;29263;48.172;11.484;2023-05-07T02:55:55;8.88;;;5.53;;
43664;SDS011;29263;48.172;11.484;2023-05-07T02:58:21;8.38;;;5.90;;
43664;SDS011;29263;48.172;11.484;2023-05-07T03:00:47;6.43;;;5.60;;
43664;SDS011;29263;48.172;11.484;2023-05-07T03:03:13;8.02;;;5.40;;
43664;SDS011;29263;48.172;11.484;2023-05-07T03:05:39;8.50;;;5.72;;
43664;SDS011;29263;48.172;11.484;2023-05-07T03:08:04;9.77;;;5.38;;
43664;SDS011;29263;48.172;11.484;2023-05-07T03:10:30;6.50;;;5.65;;
43664;SDS011;29263;48.172;11.484;2023-05-07T03:12:56;10.68;;;5.82;;
43664;SDS011;29263;48.172;11.484;2023-05-07T03:15:22;9.55;;;5.60;;
43664;SDS011;29263;48.172;11.484;2023-05-07T03:17:48;9.23;;;5.85;;
43664;SDS011;29263;48.172;11.484;2023-05-07T03:20:13;7.45;;;5.80;;
43664;SDS011;29263;48.172;11.484;2023-05-07T03:22:39;8.03;;;5.43;;
43664;SDS011;29263;48.172;11.484;2023-05-07T03:25:05;8.23;;;5.95;;
43664;SDS011;29263;48.172;11.484;2023-05-07T03:27:32;7.57;;;5.70;;
43664;SDS011;29263;48.172;11.484;2023-05-07T03:29:58;7.30;;;5.50;;
43664;SDS011;29263;48.172;11.484;2023-05-07T03:32:24;7.47;;;5.40;;
43664;SDS011;29263;48.172;11.484;2023-05-07T03:34:50;7.68;;;5.38;;
43664;SDS011;29263;48.172;11.484;2023-05-07T03:37:15;8.60;;;5.53;;
43664;SDS011;29263;48.172;11.484;2023-05-07T03:39:41;7.90;;;5.80;;
43664;SDS011;29263;48.172;11.484;2023-05-07T03:42:07;7.40;;;5.77;;
43664;SDS011;29263;48.172;11.484;2023-05-07T03:44:33;5.88;;;5.03;;
43664;SDS011;29263;48.172;11.484;2023-05-07T03:47:02;8.93;;;5.38;;
43664;SDS011;29263;48.172;11.484;2023-05-07T03:49:31;10.00;;;5.43;;
43664;SDS011;29263;48.172;11.484;2023-05-07T03:51:56;6.55;;;5.50;;
43664;SDS011;29263;48.172;11.484;2023-05-07T03:54:22;6.93;;;5.33;;
43664;SDS011;29263;48.172;11.484;2023-05-07T03:56:47;8.25;;;5.18;;
43664;SDS011;29263;48.172;11.484;2023-05-07T03:59:13;9.07;;;5.57;;
43664;SDS011;29263;48.172;11.484;2023-05-07T04:01:42;8.03;;;5.87;;
43664;SDS011;29263;48.172;11.484;2023-05-07T04:04:10;7.93;;;5.00;;
43664;SDS011;29263;48.172;11.484;2023-05-07T04:06:38;8.20;;;5.50;;
43664;SDS011;29263;48.172;11.484;2023-05-07T04:09:07;7.93;;;5.40;;
43664;SDS011;29263;48.172;11.484;2023-05-07T04:11:33;10.43;;;5.93;;
43664;SDS011;29263;48.172;11.484;2023-05-07T04:13:58;8.63;;;5.57;;
43664;SDS011;29263;48.172;11.484;2023-05-07T04:16:24;8.57;;;6.10;;
43664;SDS011;29263;48.172;11.484;2023-05-07T04:18:50;7.03;;;5.93;;
43664;SDS011;29263;48.172;11.484;2023-05-07T04:21:19;6.77;;;5.40;;
43664;SDS011;29263;48.172;11.484;2023-05-07T04:23:48;8.00;;;5.73;;
43664;SDS011;29263;48.172;11.484;2023-05-07T04:26:15;8.30;;;5.90;;
43664;SDS011;29263;48.172;11.484;2023-05-07T04:28:41;7.03;;;5.03;;
43664;SDS011;29263;48.172;11.484;2023-05-07T04:31:07;7.00;;;5.23;;
43664;SDS011;29263;48.172;11.484;2023-05-07T04:33:33;7.45;;;5.53;;
43664;SDS011;29263;48.172;11.484;2023-05-07T04:36:01;6.37;;;5.30;;
43664;SDS011;29263;48.172;11.484;2023-05-07T04:38:28;6.13;;;5.03;;
43664;SDS011;29263;48.172;11.484;2023-05-07T04:40:55;7.50;;;5.50;;
43664;SDS011;29263;48.172;11.484;2023-05-07T04:43:22;6.83;;;5.40;;
43664;SDS011;29263;48.172;11.484;2023-05-07T04:45:49;7.35;;;5.07;;
43664;SDS011;29263;48.172;11.484;2023-05-07T04:48:15;6.93;;;4.85;;
43664;SDS011;29263;48.172;11.484;2023-05-07T04:50:44;7.13;;;5.53;;
43664;SDS011;29263;48.172;11.484;2023-05-07T04:53:12;6.38;;;4.93;;
43664;SDS011;29263;48.172;11.484;2023-05-07T04:55:37;10.88;;;5.00;;
43664;SDS011;29263;48.172;11.484;2023-05-07T04:58:03;6.30;;;5.00;;
43664;SDS011;29263;48.172;11.484;2023-05-07T05:00:30;7.82;;;5.07;;
43664;SDS011;29263;48.172;11.484;2023-05-07T05:02:55;8.25;;;5.18;;
43664;SDS011;29263;48.172;11.484;2023-05-07T05:05:21;6.80;;;4.95;;
43664;SDS011;29263;48.172;11.484;2023-05-07T05:07:47;6.07;;;4.20;;
43664;SDS011;29263;48.172;11.484;2023-05-07T05:10:12;9.93;;;5.10;;
43664;SDS011;29263;48.172;11.484;2023-05-07T05:12:38;6.20;;;4.72;;
43664;SDS011;29263;48.172;11.484;2023-05-07T05:15:04;5.53;;;4.68;;
43664;SDS011;29263;48.172;11.484;2023-05-07T05:17:30;5.07;;;4.55;;
43664;SDS011;29263;48.172;11.484;2023-05-07T05:19:56;5.45;;;4.32;;
43664;SDS011;29263;48.172;11.484;2023-05-07T05:22:21;5.43;;;4.38;;
43664;SDS011;29263;48.172;11.484;2023-05-07T05:24:47;5.10;;;4.20;;
43664;SDS011;29263;48.172;11.484;2023-05-07T05:27:12;7.63;;;4.75;;
43664;SDS011;29263;48.172;11.484;2023-05-07T05:29:38;4.57;;;4.10;;
43664;SDS011;29263;48.172;11.484;2023-05-07T05:32:04;8.48;;;4.75;;
43664;SDS011;29263;48.172;11.484;2023-05-07T05:34:29;6.60;;;4.00;;
43664;SDS011;29263;48.172;11.484;2023-05-07T05:36:55;7.10;;;4.28;;
43664;SDS011;29263;48.172;11.484;2023-05-07T05:39:21;6.45;;;4.22;;
43664;SDS011;29263;48.172;11.484;2023-05-07T05:41:48;5.55;;;4.50;;
43664;SDS011;29263;48.172;11.484;2023-05-07T05:44:13;3.78;;;3.35;;
43664;SDS011;29263;48.172;11.484;2023-05-07T05:46:39;7.75;;;4.10;;
43664;SDS011;29263;48.172;11.484;2023-05-07T05:49:05;6.28;;;3.95;;
43664;SDS011;29263;48.172;11.484;2023-05-07T05:51:30;6.85;;;3.58;;
43664;SDS011;29263;48.172;11.484;2023-05-07T05:53:56;5.85;;;3.67;;
43664;SDS011;29263;48.172;11.484;2023-05-07T05:56:21;5.05;;;3.85;;
43664;SDS011;29263;48.172;11.484;2023-05-07T05:58:47;5.28;;;3.80;;
43664;SDS011;29263;48.172;11.484;2023-05-07T06:01:17;4.63;;;3.63;;
43664;SDS011;29263;48.172;11.484;2023-05-07T06:03:45;4.38;;;3.55;;
43664;SDS011;29263;48.172;11.484;2023-05-07T06:06:25;5.82;;;3.80;;
43664;SDS011;29263;48.172;11.484;2023-05-07T06:08:52;5.72;;;3.75;;
43664;SDS011;29263;48.172;11.484;2023-05-07T06:11:24;4.50;;;3.20;;
43664;SDS011;29263;48.172;11.484;2023-05-07T06:13:51;5.25;;;3.15;;
43664;SDS011;29263;48.172;11.484;2023-05-07T06:16:20;4.32;;;3.45;;
43664;SDS011;29263;48.172;11.484;2023-05-07T06:18:48;3.97;;;3.13;;
43664;SDS011;29263;48.172;11.484;2023-05-07T06:21:20;4.25;;;2.85;;
43664;SDS011;29263;48.172;11.484;2023-05-07T06:23:46;4.28;;;2.90;;
43664;SDS011;29263;48.172;11.484;2023-05-07T06:26:11;3.20;;;2.67;;
43664;SDS011;29263;48.172;11.484;2023-05-07T06:28:37;7.18;;;3.38;;
43664;SDS011;29263;48.172;11.484;2023-05-07T06:31:12;4.07;;;2.58;;
43664;SDS011;29263;48.172;11.484;2023-05-07T06:33:42;3.67;;;2.55;;
43664;SDS011;29263;48.172;11.484;2023-05-07T06:36:09;3.50;;;3.05;;
43664;SDS011;29263;48.172;11.484;2023-05-07T06:38:34;3.17;;;2.17;;
43664;SDS011;29263;48.172;11.484;2023-05-07T06:41:00;2.30;;;2.10;;
43664;SDS011;29263;48.172;11.484;2023-05-07T06:43:26;5.07;;;2.20;;
43664;SDS011;29263;48.172;11.484;2023-05-07T06:45:51;5.50;;;2.00;;
43664;SDS011;29263;48.172;11.484;2023-05-07T06:48:17;3.03;;;2.20;;
43664;SDS011;29263;48.172;11.484;2023-05-07T06:50:42;2.40;;;2.03;;
43664;SDS011;29263;48.172;11.484;2023-05-07T06:53:08;3.50;;;2.78;;
43664;SDS011;29263;48.172;11.484;2023-05-07T06:55:34;2.72;;;2.00;;
43664;SDS011;29263;48.172;11.484;2023-05-07T06:57:59;3.38;;;1.90;;
43664;SDS011;29263;48.172;11.484;2023-05-07T07:00:26;2.25;;;2.03;;
43664;SDS011;29263;48.172;11.484;2023-05-07T07:02:53;3.67;;;1.83;;
43664;SDS011;29263;48.172;11.484;2023-05-07T07:05:19;2.85;;;2.00;;
43664;SDS011;29263;48.172;11.484;2023-05-07T07:07:45;2.08;;;1.60;;
43664;SDS011;29263;48.172;11.484;2023-05-07T07:10:17;2.47;;;1.50;;
43664;SDS011;29263;48.172;11.484;2023-05-07T07:12:46;3.85;;;1.55;;
43664;SDS011;29263;48.172;11.484;2023-05-07T07:15:12;1.98;;;1.50;;
43664;SDS011;29263;48.172;11.484;2023-05-07T07:17:38;3.30;;;1.60;;
43664;SDS011;29263;48.172;11.484;2023-05-07T07:20:04;1.98;;;1.52;;
43664;SDS011;29263;48.172;11.484;2023-05-07T07:22:30;2.78;;;1.92;;
43664;SDS011;29263;48.172;11.484;2023-05-07T07:24:56;3.55;;;1.30;;
43664;SDS011;29263;48.172;11.484;2023-05-07T07:27:21;3.05;;;1.70;;
43664;SDS011;29263;48.172;11.484;2023-05-07T07:29:47;1.88;;;1.63;;
43664;SDS011;29263;48.172;11.484;2023-05-07T07:32:13;2.13;;;1.40;;
43664;SDS011;29263;48.172;11.484;2023-05-07T07:34:39;2.72;;;2.05;;
43664;SDS011;29263;48.172;11.484;2023-05-07T07:37:08;3.80;;;1.67;;
43664;SDS011;29263;48.172;11.484;2023-05-07T07:39:33;2.70;;;1.50;;
43664;SDS011;29263;48.172;11.484;2023-05-07T07:41:59;3.28;;;1.80;;
43664;SDS011;29263;48.172;11.484;2023-05-07T07:44:25;1.92;;;1.70;;
43664;SDS011;29263;48.172;11.484;2023-05-07T07:46:52;1.80;;;1.70;;
43664;SDS011;29263;48.172;11.484;2023-05-07T07:49:18;3.90;;;1.77;;
43664;SDS011;29263;48.172;11.484;2023-05-07T07:51:44;2.95;;;1.48;;
43664;SDS011;29263;48.172;11.484;2023-05-07T07:54:09;2.00;;;1.33;;
43664;SDS011;29263;48.172;11.484;2023-05-07T07:56:35;1.38;;;1.27;;
43664;SDS011;29263;48.172;11.484;2023-05-07T07:59:01;1.98;;;1.60;;
43664;SDS011;29263;48.172;11.484;2023-05-07T08:01:26;2.55;;;1.55;;
43664;SDS011;29263;48.172;11.484;2023-05-07T08:03:54;1.98;;;1.35;;
43664;SDS011;29263;48.172;11.484;2023-05-07T08:06:20;2.13;;;1.55;;
43664;SDS011;29263;48.172;11.484;2023-05-07T08:08:45;1.55;;;1.10;;
43664;SDS011;29263;48.172;11.484;2023-05-07T08:11:11;1.63;;;1.40;;
43664;SDS011;29263;48.172;11.484;2023-05-07T08:13:37;4.43;;;1.92;;
43664;SDS011;29263;48.172;11.484;2023-05-07T08:16:04;2.65;;;1.65;;
43664;SDS011;29263;48.172;11.484;2023-05-07T08:18:29;2.92;;;1.17;;
43664;SDS011;29263;48.172;11.484;2023-05-07T08:20:55;3.33;;;1.52;;
43664;SDS011;29263;48.172;11.484;2023-05-07T08:23:21;2.90;;;1.70;;
43664;SDS011;29263;48.172;11.484;2023-05-07T08:25:47;2.63;;;1.98;;
43664;SDS011;29263;48.172;11.484;2023-05-07T08:28:14;4.05;;;1.58;;
43664;SDS011;29263;48.172;11.484;2023-05-07T08:30:39;3.80;;;1.70;;
43664;SDS011;29263;48.172;11.484;2023-05-07T08:33:05;2.75;;;1.85;;
43664;SDS011;29263;48.172;11.484;2023-05-07T08:35:33;1.90;;;1.52;;
43664;SDS011;29263;48.172;11.484;2023-05-07T08:37:58;1.80;;;1.60;;
43664;SDS011;29263;48.172;11.484;2023-05-07T08:40:25;1.67;;;1.40;;
43664;SDS011;29263;48.172;11.484;2023-05-07T08:42:51;3.95;;;1.30;;
43664;SDS011;29263;48.172;11.484;2023-05-07T08:45:18;4.75;;;1.30;;
43664;SDS011;29263;48.172;11.484;2023-05-07T08:47:59;3.40;;;1.42;;
43664;SDS011;29263;48.172;11.484;2023-05-07T08:50:26;1.85;;;1.45;;
43664;SDS011;29263;48.172;11.484;2023-05-07T08:52:52;1.60;;;1.17;;
43664;SDS011;29263;48.172;11.484;2023-05-07T08:55:18;2.65;;;1.35;;
43664;SDS011;29263;48.172;11.484;2023-05-07T08:57:45;2.78;;;1.70;;
43664;SDS011;29263;48.172;11.484;2023-05-07T09:00:10;3.00;;;1.75;;
43664;SDS011;29263;48.172;11.484;2023-05-07T09:02:36;2.10;;;1.23;;
43664;SDS011;29263;48.172;11.484;2023-05-07T09:05:03;3.80;;;1.77;;
43664;SDS011;29263;48.172;11.484;2023-05-07T09:07:29;3.45;;;1.75;;
43664;SDS011;29263;48.172;11.484;2023-05-07T09:09:55;2.35;;;1.30;;
43664;SDS011;29263;48.172;11.484;2023-05-07T09:12:22;1.63;;;1.50;;
43664;SDS011;29263;48.172;11.484;2023-05-07T09:14:47;2.10;;;1.45;;
43664;SDS011;29263;48.172;11.484;2023-05-07T09:17:15;1.50;;;1.30;;
43664;SDS011;29263;48.172;11.484;2023-05-07T09:19:41;2.00;;;1.52;;
43664;SDS011;29263;48.172;11.484;2023-05-07T09:22:11;1.63;;;1.50;;
43664;SDS011;29263;48.172;11.484;2023-05-07T09:24:37;2.92;;;1.33;;
43664;SDS011;29263;48.172;11.484;2023-05-07T09:27:04;2.55;;;1.30;;
43664;SDS011;29263;48.172;11.484;2023-05-07T09:29:30;2.92;;;1.38;;
43664;SDS011;29263;48.172;11.484;2023-05-07T09:32:03;2.50;;;1.40;;
43664;SDS011;29263;48.172;11.484;2023-05-07T09:34:35;3.25;;;1.08;;
43664;SDS011;29263;48.172;11.484;2023-05-07T09:37:04;2.50;;;1.98;;
43664;SDS011;29263;48.172;11.484;2023-05-07T09:42:12;3.05;;;1.80;;
43664;SDS011;29263;48.172;11.484;2023-05-07T09:44:40;3.85;;;1.30;;
43664;SDS011;29263;48.172;11.484;2023-05-07T09:47:06;1.27;;;0.80;;
43664;SDS011;29263;48.172;11.484;2023-05-07T09:49:36;1.15;;;1.00;;
43664;SDS011;29263;48.172;11.484;2023-05-07T09:52:05;2.78;;;1.50;;
43664;SDS011;29263;48.172;11.484;2023-05-07T09:54:33;1.60;;;1.10;;
43664;SDS011;29263;48.172;11.484;2023-05-07T09:57:03;1.63;;;1.10;;
43664;SDS011;29263;48.172;11.484;2023-05-07T09:59:31;1.58;;;0.80;;
43664;SDS011;29263;48.172;11.484;2023-05-07T10:01:58;3.38;;;1.10;;
43664;SDS011;29263;48.172;11.484;2023-05-07T10:04:27;1.98;;;1.02;;
43664;SDS011;29263;48.172;11.484;2023-05-07T10:06:53;1.77;;;1.20;;
43664;SDS011;29263;48.172;11.484;2023-05-07T10:09:19;1.98;;;1.30;;
43664;SDS011;29263;48.172;11.484;2023-05-07T10:11:46;1.80;;;0.80;;
43664;SDS011;29263;48.172;11.484;2023-05-07T10:14:16;2.65;;;0.95;;
43664;SDS011;29263;48.172;11.484;2023-05-07T10:16:43;1.40;;;0.90;;
43664;SDS011;29263;48.172;11.484;2023-05-07T10:19:09;2.08;;;1.60;;
43664;SDS011;29263;48.172;11.484;2023-05-07T10:21:39;1.77;;;1.45;;
43664;SDS011;29263;48.172;11.484;2023-05-07T10:24:10;1.90;;;0.90;;
43664;SDS011;29263;48.172;11.484;2023-05-07T10:26:54;1.00;;;0.77;;
43664;SDS011;29263;48.172;11.484;2023-05-07T10:29:37;1.65;;;1.23;;
43664;SDS011;29263;48.172;11.484;2023-05-07T10:32:17;2.35;;;1.63;;
43664;SDS011;29263;48.172;11.484;2023-05-07T10:34:53;2.03;;;1.00;;
43664;SDS011;29263;48.172;11.484;2023-05-07T10:37:21;2.00;;;1.05;;
43664;SDS011;29263;48.172;11.484;2023-05-07T10:39:48;3.10;;;1.13;;
43664;SDS011;29263;48.172;11.484;2023-05-07T10:42:14;1.73;;;1.10;;
43664;SDS011;29263;48.172;11.484;2023-05-07T10:44:40;1.17;;;0.95;;
43664;SDS011;29263;48.172;11.484;2023-05-07T10:47:09;1.33;;;1.20;;
43664;SDS011;29263;48.172;11.484;2023-05-07T10:49:37;1.27;;;1.05;;
43664;SDS011;29263;48.172;11.484;2023-05-07T10:52:15;1.73;;;1.08;;
43664;SDS011;29263;48.172;11.484;2023-05-07T10:54:44;1.60;;;1.20;;
43664;SDS011;29263;48.172;11.484;2023-05-07T10:59:54;1.67;;;0.98;;
43664;SDS011;29263;48.172;11.484;2023-05-07T11:02:19;1.15;;;1.05;;
43664;SDS011;29263;48.172;11.484;2023-05-07T11:04:45;2.22;;;0.90;;
43664;SDS011;29263;48.172;11.484;2023-05-07T11:08:08;1.17;;;1.08;;
43664;SDS011;29263;48.172;11.484;2023-05-07T11:10:52;2.80;;;1.13;;
43664;SDS011;29263;48.172;11.484;2023-05-07T11:13:40;2.38;;;0.93;;
43664;SDS011;29263;48.172;11.484;2023-05-07T11:16:22;2.38;;;0.98;;
43664;SDS011;29263;48.172;11.484;2023-05-07T11:18:53;1.33;;;0.80;;
43664;SDS011;29263;48.172;11.484;2023-05-07T11:21:33;1.17;;;0.80;;
43664;SDS011;29263;48.172;11.484;2023-05-07T11:23:59;0.60;;;0.60;;
43664;SDS011;29263;48.172;11.484;2023-05-07T11:26:25;1.90;;;0.80;;
43664;SDS011;29263;48.172;11.484;2023-05-07T11:28:52;6.22;;;0.95;;
43664;SDS011;29263;48.172;11.484;2023-05-07T11:31:23;3.85;;;1.52;;
43664;SDS011;29263;48.172;11.484;2023-05-07T11:33:51;2.30;;;1.45;;
43664;SDS011;29263;48.172;11.484;2023-05-07T11:36:17;3.28;;;1.17;;
43664;SDS011;29263;48.172;11.484;2023-05-07T11:38:44;3.05;;;1.50;;
43664;SDS011;29263;48.172;11.484;2023-05-07T11:41:09;1.67;;;1.08;;
43664;SDS011;29263;48.172;11.484;2023-05-07T11:43:35;3.28;;;1.60;;
43664;SDS011;29263;48.172;11.484;2023-05-07T11:46:05;2.35;;;1.48;;
43664;SDS011;29263;48.172;11.484;2023-05-07T11:48:39;2.15;;;1.33;;
43664;SDS011;29263;48.172;11.484;2023-05-07T11:51:06;1.83;;;1.38;;
43664;SDS011;29263;48.172;11.484;2023-05-07T11:53:41;4.70;;;1.58;;
43664;SDS011;29263;48.172;11.484;2023-05-07T11:56:10;2.95;;;1.10;;
43664;SDS011;29263;48.172;11.484;2023-05-07T11:58:40;3.35;;;1.50;;
43664;SDS011;29263;48.172;11.484;2023-05-07T12:01:07;2.03;;;1.50;;
43664;SDS011;29263;48.172;11.484;2023-05-07T12:03:34;1.70;;;1.17;;
43664;SDS011;29263;48.172;11.484;2023-05-07T12:06:02;2.65;;;1.98;;
43664;SDS011;29263;48.172;11.484;2023-05-07T12:08:30;2.42;;;1.20;;
43664;SDS011;29263;48.172;11.484;2023-05-07T12:10:55;2.05;;;1.10;;
43664;SDS011;29263;48.172;11.484;2023-05-07T12:13:22;2.83;;;1.30;;
43664;SDS011;29263;48.172;11.484;2023-05-07T12:15:53;2.90;;;1.10;;
43664;SDS011;29263;48.172;11.484;2023-05-07T12:18:20;2.33;;;1.50;;
43664;SDS011;29263;48.172;11.484;2023-05-07T12:20:47;1.98;;;1.10;;
43664;SDS011;29263;48.172;11.484;2023-05-07T12:23:13;2.75;;;1.10;;
43664;SDS011;29263;48.172;11.484;2023-05-07T12:25:40;2.20;;;1.48;;
43664;SDS011;29263;48.172;11.484;2023-05-07T12:28:12;2.03;;;1.10;;
43664;SDS011;29263;48.172;11.484;2023-05-07T12:30:43;1.65;;;1.08;;
43664;SDS011;29263;48.172;11.484;2023-05-07T12:33:09;7.32;;;1.30;;
43664;SDS011;29263;48.172;11.484;2023-05-07T12:35:42;1.17;;;0.90;;
43664;SDS011;29263;48.172;11.484;2023-05-07T12:38:11;1.48;;;1.05;;
43664;SDS011;29263;48.172;11.484;2023-05-07T12:40:39;0.80;;;0.77;;
43664;SDS011;29263;48.172;11.484;2023-05-07T12:43:06;1.45;;;0.90;;
43664;SDS011;29263;48.172;11.484;2023-05-07T12:45:36;1.42;;;1.02;;
43664;SDS011;29263;48.172;11.484;2023-05-07T12:48:05;2.22;;;0.93;;
43664;SDS011;29263;48.172;11.484;2023-05-07T12:50:31;1.30;;;1.00;;
43664;SDS011;29263;48.172;11.484;2023-05-07T12:52:58;2.50;;;1.25;;
43664;SDS011;29263;48.172;11.484;2023-05-07T12:55:24;1.88;;;1.02;;
43664;SDS011;29263;48.172;11.484;2023-05-07T12:57:50;1.58;;;0.88;;
43664;SDS011;29263;48.172;11.484;2023-05-07T13:00:17;1.80;;;0.90;;
43664;SDS011;29263;48.172;11.484;2023-05-07T13:02:58;1.42;;;1.10;;
43664;SDS011;29263;48.172;11.484;2023-05-07T13:05:23;1.23;;;0.80;;
43664;SDS011;29263;48.172;11.484;2023-05-07T13:07:52;1.20;;;0.77;;
43664;SDS011;29263;48.172;11.484;2023-05-07T13:10:22;1.30;;;0.70;;
43664;SDS011;29263;48.172;11.484;2023-05-07T13:12:48;1.95;;;0.85;;
43664;SDS011;29263;48.172;11.484;2023-05-07T13:15:14;0.85;;;0.63;;
43664;SDS011;29263;48.172;11.484;2023-05-07T13:17:40;1.50;;;0.70;;
43664;SDS011;29263;48.172;11.484;2023-05-07T13:20:05;2.25;;;0.90;;
43664;SDS011;29263;48.172;11.484;2023-05-07T13:22:33;3.33;;;0.75;;
43664;SDS011;29263;48.172;11.484;2023-05-07T13:24:58;1.67;;;0.80;;
43664;SDS011;29263;48.172;11.484;2023-05-07T13:27:24;1.00;;;0.60;;
43664;SDS011;29263;48.172;11.484;2023-05-07T13:29:50;3.72;;;0.90;;
43664;SDS011;29263;48.172;11.484;2023-05-07T13:32:16;2.08;;;1.00;;
43664;SDS011;29263;48.172;11.484;2023-05-07T13:34:41;1.55;;;1.00;;
43664;SDS011;29263;48.172;11.484;2023-05-07T13:37:07;1.00;;;0.90;;
43664;SDS011;29263;48.172;11.484;2023-05-07T13:39:32;14.75;;;1.45;;
43664;SDS011;29263;48.172;11.484;2023-05-07T13:41:58;2.08;;;1.00;;
43664;SDS011;29263;48.172;11.484;2023-05-07T13:44:24;2.30;;;1.10;;
43664;SDS011;29263;48.172;11.484;2023-05-07T13:46:51;2.92;;;1.00;;
43664;SDS011;29263;48.172;11.484;2023-05-07T13:49:20;2.28;;;1.10;;
43664;SDS011;29263;48.172;11.484;2023-05-07T13:51:45;1.55;;;1.20;;
43664;SDS011;29263;48.172;11.484;2023-05-07T13:54:11;1.00;;;0.90;;
43664;SDS011;29263;48.172;11.484;2023-05-07T13:56:37;1.67;;;0.93;;
43664;SDS011;29263;48.172;11.484;2023-05-07T13:59:02;1.55;;;0.90;;
43664;SDS011;29263;48.172;11.484;2023-05-07T14:01:28;1.55;;;0.90;;
43664;SDS011;29263;48.172;11.484;2023-05-07T14:03:53;1.45;;;1.15;;
43664;SDS011;29263;48.172;11.484;2023-05-07T14:06:20;1.60;;;1.17;;
43664;SDS011;29263;48.172;11.484;2023-05-07T14:08:46;1.40;;;1.20;;
43664;SDS011;29263;48.172;11.484;2023-05-07T14:11:12;1.50;;;1.02;;
43664;SDS011;29263;48.172;11.484;2023-05-07T14:13:37;2.97;;;1.38;;
43664;SDS011;29263;48.172;11.484;2023-05-07T14:16:03;1.30;;;1.17;;
43664;SDS011;29263;48.172;11.484;2023-05-07T14:18:29;2.15;;;1.50;;
43664;SDS011;29263;48.172;11.484;2023-05-07T14:20:55;1.50;;;1.30;;
43664;SDS011;29263;48.172;11.484;2023-05-07T14:23:20;2.13;;;1.20;;
43664;SDS011;29263;48.172;11.484;2023-05-07T14:25:51;2.20;;;1.65;;
43664;SDS011;29263;48.172;11.484;2023-05-07T14:28:17;2.47;;;1.20;;
43664;SDS011;29263;48.172;11.484;2023-05-07T14:30:43;4.28;;;1.60;;
43664;SDS011;29263;48.172;11.484;2023-05-07T14:33:09;1.70;;;1.45;;
43664;SDS011;29263;48.172;11.484;2023-05-07T14:35:35;4.05;;;1.30;;
43664;SDS011;29263;48.172;11.484;2023-05-07T14:38:00;3.45;;;1.30;;
43664;SDS011;29263;48.172;11.484;2023-05-07T14:40:26;1.58;;;1.30;;